sensor_id;sensor_type;location;lat;lon;timestamp;temperature;humidity
59703;DHT22;45570;48.782;8.332;2022-09-21T06:59:03;8.50;99.90
59703;DHT22;45570;48.782;8.332;2022-09-21T07:01:31;8.60;99.90
59703;DHT22;45570;48.782;8.332;2022-09-21T07:04:00;8.80;99.90
59703;DHT22;45570;48.782;8.332;2022-09-21T07:06:29;8.90;99.90
59703;DHT22;45570;48.782;8.332;2022-09-21T07:08:57;9.10;99.90
59703;DHT22;45570;48.782;8.332;2022-09-21T07:11:47;9.20;99.90
59703;DHT22;45570;48.782;8.332;2022-09-21T07:14:17;9.40;99.90
59703;DHT22;45570;48.782;8.332;2022-09-21T07:16:46;9.60;99.90
59703;DHT22;45570;48.782;8.332;2022-09-21T07:19:15;9.90;99.90
59703;DHT22;45570;48.782;8.332;2022-09-21T07:21:43;10.10;99.90
59703;DHT22;45570;48.782;8.332;2022-09-21T07:24:12;10.30;99.90
59703;DHT22;45570;48.782;8.332;2022-09-21T07:26:41;10.60;99.90
59703;DHT22;45570;48.782;8.332;2022-09-21T07:29:09;10.80;99.90
59703;DHT22;45570;48.782;8.332;2022-09-21T07:31:42;11.20;99.90
59703;DHT22;45570;48.782;8.332;2022-09-21T07:34:10;11.50;99.90
59703;DHT22;45570;48.782;8.332;2022-09-21T07:36:39;11.80;99.90
59703;DHT22;45570;48.782;8.332;2022-09-21T07:39:07;12.10;99.90
59703;DHT22;45570;48.782;8.332;2022-09-21T07:41:36;12.50;99.90
59703;DHT22;45570;48.782;8.332;2022-09-21T07:44:04;12.80;99.90
59703;DHT22;45570;48.782;8.332;2022-09-21T07:46:33;12.90;99.90
59703;DHT22;45570;48.782;8.332;2022-09-21T07:49:04;13.30;99.90
59703;DHT22;45570;48.782;8.332;2022-09-21T07:51:32;13.50;99.90
59703;DHT22;45570;48.782;8.332;2022-09-21T07:54:01;13.90;99.90
59703;DHT22;45570;48.782;8.332;2022-09-21T07:56:31;14.40;99.90
59703;DHT22;45570;48.782;8.332;2022-09-21T07:58:59;14.80;99.90
59703;DHT22;45570;48.782;8.332;2022-09-21T08:01:34;15.10;99.90
59703;DHT22;45570;48.782;8.332;2022-09-21T08:04:05;15.30;99.90
59703;DHT22;45570;48.782;8.332;2022-09-21T08:06:35;15.50;99.90
59703;DHT22;45570;48.782;8.332;2022-09-21T08:09:06;15.50;99.90
59703;DHT22;45570;48.782;8.332;2022-09-21T08:11:36;15.60;99.90
59703;DHT22;45570;48.782;8.332;2022-09-21T08:14:05;15.80;99.90
59703;DHT22;45570;48.782;8.332;2022-09-21T08:16:33;16.00;99.90
59703;DHT22;45570;48.782;8.332;2022-09-21T08:19:04;16.30;99.90
59703;DHT22;45570;48.782;8.332;2022-09-21T08:21:33;16.60;99.90
59703;DHT22;45570;48.782;8.332;2022-09-21T08:24:01;17.10;99.90
59703;DHT22;45570;48.782;8.332;2022-09-21T08:26:30;17.00;99.90
59703;DHT22;45570;48.782;8.332;2022-09-21T08:28:59;17.30;99.90
59703;DHT22;45570;48.782;8.332;2022-09-21T08:31:27;17.30;99.90
59703;DHT22;45570;48.782;8.332;2022-09-21T08:33:57;17.60;99.90
59703;DHT22;45570;48.782;8.332;2022-09-21T08:36:28;17.50;99.90
59703;DHT22;45570;48.782;8.332;2022-09-21T08:38:56;17.20;99.90
59703;DHT22;45570;48.782;8.332;2022-09-21T08:41:44;17.00;99.90
59703;DHT22;45570;48.782;8.332;2022-09-21T08:44:18;17.00;99.90
59703;DHT22;45570;48.782;8.332;2022-09-21T08:46:51;17.20;99.90
59703;DHT22;45570;48.782;8.332;2022-09-21T08:49:24;17.20;99.90
59703;DHT22;45570;48.782;8.332;2022-09-21T08:51:58;17.40;99.90
59703;DHT22;45570;48.782;8.332;2022-09-21T08:54:34;17.60;99.90
59703;DHT22;45570;48.782;8.332;2022-09-21T08:57:04;17.80;99.90
59703;DHT22;45570;48.782;8.332;2022-09-21T08:59:33;18.00;99.90
59703;DHT22;45570;48.782;8.332;2022-09-21T09:02:13;17.80;99.90
59703;DHT22;45570;48.782;8.332;2022-09-21T09:04:52;17.90;99.90
59703;DHT22;45570;48.782;8.332;2022-09-21T09:07:46;17.90;99.90
59703;DHT22;45570;48.782;8.332;2022-09-21T09:10:32;17.80;99.90
59703;DHT22;45570;48.782;8.332;2022-09-21T09:13:11;17.80;99.90
59703;DHT22;45570;48.782;8.332;2022-09-21T09:15:54;18.10;99.90
59703;DHT22;45570;48.782;8.332;2022-09-21T09:18:31;18.40;99.90
59703;DHT22;45570;48.782;8.332;2022-09-21T09:21:10;19.20;99.90
59703;DHT22;45570;48.782;8.332;2022-09-21T09:23:48;20.00;99.90
59703;DHT22;45570;48.782;8.332;2022-09-21T09:26:21;19.90;99.90
59703;DHT22;45570;48.782;8.332;2022-09-21T09:28:54;19.40;99.90
59703;DHT22;45570;48.782;8.332;2022-09-21T09:31:28;19.00;99.90
59703;DHT22;45570;48.782;8.332;2022-09-21T09:34:01;19.00;99.90
59703;DHT22;45570;48.782;8.332;2022-09-21T09:36:35;19.30;99.90
59703;DHT22;45570;48.782;8.332;2022-09-21T09:39:27;19.60;99.90
59703;DHT22;45570;48.782;8.332;2022-09-21T09:42:28;19.80;99.90
59703;DHT22;45570;48.782;8.332;2022-09-21T09:45:17;20.00;99.90
59703;DHT22;45570;48.782;8.332;2022-09-21T09:48:11;20.20;99.90
59703;DHT22;45570;48.782;8.332;2022-09-21T09:50:42;20.20;99.90
59703;DHT22;45570;48.782;8.332;2022-09-21T09:53:15;20.40;99.90
59703;DHT22;45570;48.782;8.332;2022-09-21T09:55:48;20.60;99.90
59703;DHT22;45570;48.782;8.332;2022-09-21T09:58:18;20.90;99.90
59703;DHT22;45570;48.782;8.332;2022-09-21T10:00:51;20.60;99.90
59703;DHT22;45570;48.782;8.332;2022-09-21T10:03:22;20.60;99.90
59703;DHT22;45570;48.782;8.332;2022-09-21T10:05:51;20.60;99.90
59703;DHT22;45570;48.782;8.332;2022-09-21T10:08:38;20.50;99.90
59703;DHT22;45570;48.782;8.332;2022-09-21T10:11:10;20.60;99.90
59703;DHT22;45570;48.782;8.332;2022-09-21T10:13:40;20.40;99.90
59703;DHT22;45570;48.782;8.332;2022-09-21T10:16:12;20.40;99.90
59703;DHT22;45570;48.782;8.332;2022-09-21T10:18:45;20.60;99.90
59703;DHT22;45570;48.782;8.332;2022-09-21T10:21:20;20.70;99.90
59703;DHT22;45570;48.782;8.332;2022-09-21T10:23:51;20.90;99.90
59703;DHT22;45570;48.782;8.332;2022-09-21T10:26:22;20.80;99.90
59703;DHT22;45570;48.782;8.332;2022-09-21T10:28:56;21.00;99.90
59703;DHT22;45570;48.782;8.332;2022-09-21T10:31:26;21.30;99.90
59703;DHT22;45570;48.782;8.332;2022-09-21T10:34:06;21.60;99.90
59703;DHT22;45570;48.782;8.332;2022-09-21T10:36:39;21.60;99.90
59703;DHT22;45570;48.782;8.332;2022-09-21T10:39:24;21.30;99.40
59703;DHT22;45570;48.782;8.332;2022-09-21T10:42:03;20.90;99.90
59703;DHT22;45570;48.782;8.332;2022-09-21T10:44:38;20.80;99.90
59703;DHT22;45570;48.782;8.332;2022-09-21T10:47:17;20.90;99.90
59703;DHT22;45570;48.782;8.332;2022-09-21T10:49:49;20.80;99.90
59703;DHT22;45570;48.782;8.332;2022-09-21T10:52:21;20.70;99.90
59703;DHT22;45570;48.782;8.332;2022-09-21T10:54:53;20.60;99.90
59703;DHT22;45570;48.782;8.332;2022-09-21T10:57:25;20.90;99.90
59703;DHT22;45570;48.782;8.332;2022-09-21T10:59:55;21.10;99.90
59703;DHT22;45570;48.782;8.332;2022-09-21T11:02:34;21.30;99.90
59703;DHT22;45570;48.782;8.332;2022-09-21T11:05:14;21.60;99.90
59703;DHT22;45570;48.782;8.332;2022-09-21T11:07:47;21.70;99.60
59703;DHT22;45570;48.782;8.332;2022-09-21T11:10:20;21.70;95.00
59703;DHT22;45570;48.782;8.332;2022-09-21T11:13:02;21.90;99.10
59703;DHT22;45570;48.782;8.332;2022-09-21T11:15:40;22.20;99.90
59703;DHT22;45570;48.782;8.332;2022-09-21T11:18:19;22.10;99.90
59703;DHT22;45570;48.782;8.332;2022-09-21T11:20:53;22.10;99.30
59703;DHT22;45570;48.782;8.332;2022-09-21T11:23:37;21.60;96.80
59703;DHT22;45570;48.782;8.332;2022-09-21T11:26:11;21.60;99.90
59703;DHT22;45570;48.782;8.332;2022-09-21T11:28:46;21.80;99.30
59703;DHT22;45570;48.782;8.332;2022-09-21T11:31:36;21.60;96.10
59703;DHT22;45570;48.782;8.332;2022-09-21T11:34:29;21.40;99.50
59703;DHT22;45570;48.782;8.332;2022-09-21T11:37:09;21.70;99.90
59703;DHT22;45570;48.782;8.332;2022-09-21T11:39:52;21.90;99.90
59703;DHT22;45570;48.782;8.332;2022-09-21T11:42:44;21.90;95.30
59703;DHT22;45570;48.782;8.332;2022-09-21T11:45:30;22.00;99.00
59703;DHT22;45570;48.782;8.332;2022-09-21T11:48:11;21.90;99.90
59703;DHT22;45570;48.782;8.332;2022-09-21T11:50:53;21.90;99.10
59703;DHT22;45570;48.782;8.332;2022-09-21T11:53:40;21.60;96.80
59703;DHT22;45570;48.782;8.332;2022-09-21T11:56:23;21.60;98.60
59703;DHT22;45570;48.782;8.332;2022-09-21T11:59:05;22.00;99.90
59703;DHT22;45570;48.782;8.332;2022-09-21T12:01:48;22.20;99.70
59703;DHT22;45570;48.782;8.332;2022-09-21T12:04:34;22.50;98.00
59703;DHT22;45570;48.782;8.332;2022-09-21T12:07:21;22.20;98.90
59703;DHT22;45570;48.782;8.332;2022-09-21T12:10:26;21.70;96.30
59703;DHT22;45570;48.782;8.332;2022-09-21T12:13:14;21.80;99.30
59703;DHT22;45570;48.782;8.332;2022-09-21T12:15:48;21.70;99.00
59703;DHT22;45570;48.782;8.332;2022-09-21T12:18:27;21.50;96.90
59703;DHT22;45570;48.782;8.332;2022-09-21T12:21:03;21.30;99.90
59703;DHT22;45570;48.782;8.332;2022-09-21T12:23:38;21.40;98.20
59703;DHT22;45570;48.782;8.332;2022-09-21T12:26:09;21.70;99.60
59703;DHT22;45570;48.782;8.332;2022-09-21T12:28:41;21.60;99.00
59703;DHT22;45570;48.782;8.332;2022-09-21T12:31:18;21.70;96.90
59703;DHT22;45570;48.782;8.332;2022-09-21T12:33:49;21.30;97.10
59703;DHT22;45570;48.782;8.332;2022-09-21T12:36:23;21.20;99.90
59703;DHT22;45570;48.782;8.332;2022-09-21T12:38:57;20.80;98.20
59703;DHT22;45570;48.782;8.332;2022-09-21T12:41:29;20.90;99.90
59703;DHT22;45570;48.782;8.332;2022-09-21T12:44:08;21.30;98.70
59703;DHT22;45570;48.782;8.332;2022-09-21T12:46:42;21.20;98.40
59703;DHT22;45570;48.782;8.332;2022-09-21T12:49:26;21.20;97.50
59703;DHT22;45570;48.782;8.332;2022-09-21T12:51:59;20.90;97.10
59703;DHT22;45570;48.782;8.332;2022-09-21T12:54:35;20.40;99.90
59703;DHT22;45570;48.782;8.332;2022-09-21T12:57:15;20.20;99.90
59703;DHT22;45570;48.782;8.332;2022-09-21T13:00:13;20.30;99.20
59703;DHT22;45570;48.782;8.332;2022-09-21T13:02:46;20.30;97.80
59703;DHT22;45570;48.782;8.332;2022-09-21T13:05:29;20.40;99.90
59703;DHT22;45570;48.782;8.332;2022-09-21T13:08:06;20.60;98.20
59703;DHT22;45570;48.782;8.332;2022-09-21T13:10:42;20.50;97.40
59703;DHT22;45570;48.782;8.332;2022-09-21T13:13:22;20.60;98.80
59703;DHT22;45570;48.782;8.332;2022-09-21T13:15:52;21.00;99.90
59703;DHT22;45570;48.782;8.332;2022-09-21T13:18:25;21.30;99.90
59703;DHT22;45570;48.782;8.332;2022-09-21T13:21:00;21.20;99.90
59703;DHT22;45570;48.782;8.332;2022-09-21T13:23:35;20.80;99.90
59703;DHT22;45570;48.782;8.332;2022-09-21T13:26:09;20.80;99.50
59703;DHT22;45570;48.782;8.332;2022-09-21T13:29:00;20.60;98.90
59703;DHT22;45570;48.782;8.332;2022-09-21T13:31:41;20.30;98.20
59703;DHT22;45570;48.782;8.332;2022-09-21T13:34:22;20.80;99.90
59703;DHT22;45570;48.782;8.332;2022-09-21T13:43:22;20.80;98.50
59703;DHT22;45570;48.782;8.332;2022-09-21T13:45:55;20.70;95.20
59703;DHT22;45570;48.782;8.332;2022-09-21T13:48:26;20.40;97.10
59703;DHT22;45570;48.782;8.332;2022-09-21T13:50:58;20.10;96.50
59703;DHT22;45570;48.782;8.332;2022-09-21T13:53:34;20.10;98.30
59703;DHT22;45570;48.782;8.332;2022-09-21T13:56:08;20.30;98.90
59703;DHT22;45570;48.782;8.332;2022-09-21T13:58:46;20.50;98.30
59703;DHT22;45570;48.782;8.332;2022-09-21T14:01:18;20.10;95.00
59703;DHT22;45570;48.782;8.332;2022-09-21T14:04:18;19.90;98.00
59703;DHT22;45570;48.782;8.332;2022-09-21T14:06:48;20.00;98.10
59703;DHT22;45570;48.782;8.332;2022-09-21T14:09:22;20.20;99.90
59703;DHT22;45570;48.782;8.332;2022-09-21T14:11:55;20.10;98.40
59703;DHT22;45570;48.782;8.332;2022-09-21T14:14:29;19.80;98.30
59703;DHT22;45570;48.782;8.332;2022-09-21T14:16:59;19.40;99.90
59703;DHT22;45570;48.782;8.332;2022-09-21T14:22:42;18.80;99.90
59703;DHT22;45570;48.782;8.332;2022-09-21T14:28:14;19.10;99.90
59703;DHT22;45570;48.782;8.332;2022-09-21T14:30:54;19.30;99.00
59703;DHT22;45570;48.782;8.332;2022-09-21T14:33:31;19.40;99.90
59703;DHT22;45570;48.782;8.332;2022-09-21T14:36:06;19.10;99.90
59703;DHT22;45570;48.782;8.332;2022-09-21T14:38:42;19.30;99.90
59703;DHT22;45570;48.782;8.332;2022-09-21T14:41:20;19.30;97.50
59703;DHT22;45570;48.782;8.332;2022-09-21T14:43:51;19.50;97.40
59703;DHT22;45570;48.782;8.332;2022-09-21T14:47:06;19.50;99.90
59703;DHT22;45570;48.782;8.332;2022-09-21T14:49:51;19.30;97.60
59703;DHT22;45570;48.782;8.332;2022-09-21T14:52:29;19.10;99.00
59703;DHT22;45570;48.782;8.332;2022-09-21T14:55:10;19.30;99.90
59703;DHT22;45570;48.782;8.332;2022-09-21T14:57:54;19.30;97.90
59703;DHT22;45570;48.782;8.332;2022-09-21T15:00:36;19.40;99.00
59703;DHT22;45570;48.782;8.332;2022-09-21T15:03:31;19.30;96.80
59703;DHT22;45570;48.782;8.332;2022-09-21T15:06:13;19.00;96.80
59703;DHT22;45570;48.782;8.332;2022-09-21T15:09:15;18.80;98.20
59703;DHT22;45570;48.782;8.332;2022-09-21T15:12:10;18.70;99.90
59703;DHT22;45570;48.782;8.332;2022-09-21T15:14:42;18.40;98.10
59703;DHT22;45570;48.782;8.332;2022-09-21T15:17:24;18.60;99.90
59703;DHT22;45570;48.782;8.332;2022-09-21T15:19:58;18.90;99.90
59703;DHT22;45570;48.782;8.332;2022-09-21T15:22:27;19.00;98.50
59703;DHT22;45570;48.782;8.332;2022-09-21T15:25:01;19.00;95.70
59703;DHT22;45570;48.782;8.332;2022-09-21T15:27:31;19.20;98.10
59703;DHT22;45570;48.782;8.332;2022-09-21T15:30:03;19.60;99.70
59703;DHT22;45570;48.782;8.332;2022-09-21T15:32:36;19.50;97.50
59703;DHT22;45570;48.782;8.332;2022-09-21T15:35:21;19.60;96.40
59703;DHT22;45570;48.782;8.332;2022-09-21T15:37:50;19.70;99.10
59703;DHT22;45570;48.782;8.332;2022-09-21T15:40:21;19.50;96.40
59703;DHT22;45570;48.782;8.332;2022-09-21T15:43:15;19.30;98.20
59703;DHT22;45570;48.782;8.332;2022-09-21T15:45:48;19.10;97.50
59703;DHT22;45570;48.782;8.332;2022-09-21T15:48:20;19.00;99.60
59703;DHT22;45570;48.782;8.332;2022-09-21T15:50:53;18.70;99.90
59703;DHT22;45570;48.782;8.332;2022-09-21T15:53:26;18.50;99.60
59703;DHT22;45570;48.782;8.332;2022-09-21T15:55:56;18.40;99.90
59703;DHT22;45570;48.782;8.332;2022-09-21T15:58:31;18.00;99.90
59703;DHT22;45570;48.782;8.332;2022-09-21T16:01:09;17.80;99.80
59703;DHT22;45570;48.782;8.332;2022-09-21T16:03:38;17.50;99.90
59703;DHT22;45570;48.782;8.332;2022-09-21T16:06:24;17.30;99.90
59703;DHT22;45570;48.782;8.332;2022-09-21T16:08:52;17.00;99.90
59703;DHT22;45570;48.782;8.332;2022-09-21T16:11:32;16.80;99.90
59703;DHT22;45570;48.782;8.332;2022-09-21T16:14:08;16.50;99.90
59703;DHT22;45570;48.782;8.332;2022-09-21T16:17:18;16.30;99.90
59703;DHT22;45570;48.782;8.332;2022-09-21T16:20:15;16.10;99.90
59703;DHT22;45570;48.782;8.332;2022-09-21T16:22:46;16.20;99.90
59703;DHT22;45570;48.782;8.332;2022-09-21T16:25:25;16.20;99.90
59703;DHT22;45570;48.782;8.332;2022-09-21T16:27:58;16.10;99.90
59703;DHT22;45570;48.782;8.332;2022-09-21T16:30:41;16.10;99.90
59703;DHT22;45570;48.782;8.332;2022-09-21T16:33:35;16.00;99.90
59703;DHT22;45570;48.782;8.332;2022-09-21T16:36:38;15.90;99.90
59703;DHT22;45570;48.782;8.332;2022-09-21T16:39:11;15.80;99.90
59703;DHT22;45570;48.782;8.332;2022-09-21T16:41:44;15.70;99.90
59703;DHT22;45570;48.782;8.332;2022-09-21T16:44:16;15.70;99.90
59703;DHT22;45570;48.782;8.332;2022-09-21T16:46:55;15.50;99.90
59703;DHT22;45570;48.782;8.332;2022-09-21T16:49:27;15.40;99.90
59703;DHT22;45570;48.782;8.332;2022-09-21T16:51:56;15.20;99.90
59703;DHT22;45570;48.782;8.332;2022-09-21T16:54:27;15.20;99.90
59703;DHT22;45570;48.782;8.332;2022-09-21T16:56:58;15.00;99.90
59703;DHT22;45570;48.782;8.332;2022-09-21T16:59:27;14.80;99.90
59703;DHT22;45570;48.782;8.332;2022-09-21T17:01:56;14.60;99.90
59703;DHT22;45570;48.782;8.332;2022-09-21T17:04:27;14.40;99.90
59703;DHT22;45570;48.782;8.332;2022-09-21T17:06:56;14.30;99.90
59703;DHT22;45570;48.782;8.332;2022-09-21T17:09:29;14.10;99.90
59703;DHT22;45570;48.782;8.332;2022-09-21T17:11:59;14.00;99.90
59703;DHT22;45570;48.782;8.332;2022-09-21T17:14:30;13.90;99.90
59703;DHT22;45570;48.782;8.332;2022-09-21T17:17:03;13.70;99.90
59703;DHT22;45570;48.782;8.332;2022-09-21T17:19:32;13.70;99.90
59703;DHT22;45570;48.782;8.332;2022-09-21T17:22:02;13.60;99.90
59703;DHT22;45570;48.782;8.332;2022-09-21T17:24:32;13.50;99.90
59703;DHT22;45570;48.782;8.332;2022-09-21T17:27:17;13.60;99.90
59703;DHT22;45570;48.782;8.332;2022-09-21T17:29:47;13.40;99.90
59703;DHT22;45570;48.782;8.332;2022-09-21T17:32:20;13.30;99.90
59703;DHT22;45570;48.782;8.332;2022-09-21T17:34:53;13.20;99.90
59703;DHT22;45570;48.782;8.332;2022-09-21T17:37:22;13.10;99.90
59703;DHT22;45570;48.782;8.332;2022-09-21T17:39:54;12.90;99.90
59703;DHT22;45570;48.782;8.332;2022-09-21T17:42:23;12.70;99.90
59703;DHT22;45570;48.782;8.332;2022-09-21T17:44:58;12.50;99.90
59703;DHT22;45570;48.782;8.332;2022-09-21T17:47:30;12.30;99.90
59703;DHT22;45570;48.782;8.332;2022-09-21T17:50:13;12.10;99.90
59703;DHT22;45570;48.782;8.332;2022-09-21T17:52:43;11.90;99.90
59703;DHT22;45570;48.782;8.332;2022-09-21T17:55:31;11.70;99.90
59703;DHT22;45570;48.782;8.332;2022-09-21T17:58:33;11.60;99.90
59703;DHT22;45570;48.782;8.332;2022-09-21T18:01:06;11.50;99.90
59703;DHT22;45570;48.782;8.332;2022-09-21T18:03:37;11.40;99.90
59703;DHT22;45570;48.782;8.332;2022-09-21T18:06:09;11.20;99.90
59703;DHT22;45570;48.782;8.332;2022-09-21T18:08:39;11.10;99.90
59703;DHT22;45570;48.782;8.332;2022-09-21T18:11:39;11.00;99.90
59703;DHT22;45570;48.782;8.332;2022-09-21T18:14:16;10.80;99.90
59703;DHT22;45570;48.782;8.332;2022-09-21T18:17:03;10.70;99.90
59703;DHT22;45570;48.782;8.332;2022-09-21T18:19:45;10.60;99.90
59703;DHT22;45570;48.782;8.332;2022-09-21T18:22:21;10.40;99.90
59703;DHT22;45570;48.782;8.332;2022-09-21T18:24:51;10.40;99.90
59703;DHT22;45570;48.782;8.332;2022-09-21T18:27:23;10.40;99.90
59703;DHT22;45570;48.782;8.332;2022-09-21T18:29:52;10.30;99.90
59703;DHT22;45570;48.782;8.332;2022-09-21T18:32:52;10.30;99.90
59703;DHT22;45570;48.782;8.332;2022-09-21T18:35:39;10.20;99.90
59703;DHT22;45570;48.782;8.332;2022-09-21T18:38:19;10.10;99.90
59703;DHT22;45570;48.782;8.332;2022-09-21T18:41:02;10.00;99.90
59703;DHT22;45570;48.782;8.332;2022-09-21T18:43:43;9.90;99.90
59703;DHT22;45570;48.782;8.332;2022-09-21T18:46:17;9.90;99.90
59703;DHT22;45570;48.782;8.332;2022-09-21T18:48:55;9.90;99.90
59703;DHT22;45570;48.782;8.332;2022-09-21T18:51:29;9.80;99.90
59703;DHT22;45570;48.782;8.332;2022-09-21T18:54:01;9.70;99.90
59703;DHT22;45570;48.782;8.332;2022-09-21T18:56:33;9.60;99.90
59703;DHT22;45570;48.782;8.332;2022-09-21T18:59:05;9.70;99.90
59703;DHT22;45570;48.782;8.332;2022-09-21T19:01:34;9.60;99.90
59703;DHT22;45570;48.782;8.332;2022-09-21T19:04:03;9.50;99.90
59703;DHT22;45570;48.782;8.332;2022-09-21T19:06:41;9.50;99.90
59703;DHT22;45570;48.782;8.332;2022-09-21T19:12:15;9.30;99.90
59703;DHT22;45570;48.782;8.332;2022-09-21T19:14:57;9.40;99.90
59703;DHT22;45570;48.782;8.332;2022-09-21T19:17:42;9.30;99.90
59703;DHT22;45570;48.782;8.332;2022-09-21T19:20:29;9.10;99.90
59703;DHT22;45570;48.782;8.332;2022-09-21T19:23:07;9.20;99.90
59703;DHT22;45570;48.782;8.332;2022-09-21T19:25:42;9.00;99.90
